sensor_id;sensor_type;location;lat;lon;timestamp;pressure;altitude;pressure_sealevel;temperature;humidity
31403;BME280;18039;52.188;21.024;2023-02-22T00:01:34;77265.97;;;-141.45;100.00
31403;BME280;18039;52.188;21.024;2023-02-22T00:04:04;77265.97;;;-141.45;100.00
31403;BME280;18039;52.188;21.024;2023-02-22T00:06:32;77270.00;;;-141.45;100.00
31403;BME280;18039;52.188;21.024;2023-02-22T00:08:59;77270.00;;;-141.45;100.00
31403;BME280;18039;52.188;21.024;2023-02-22T00:11:28;77270.00;;;-141.45;100.00
31403;BME280;18039;52.188;21.024;2023-02-22T00:13:57;77270.00;;;-141.45;100.00
31403;BME280;18039;52.188;21.024;2023-02-22T00:16:25;77265.97;;;-141.45;100.00
31403;BME280;18039;52.188;21.024;2023-02-22T00:18:53;77270.00;;;-141.45;100.00
31403;BME280;18039;52.188;21.024;2023-02-22T00:21:21;77288.25;;;-141.45;100.00
31403;BME280;18039;52.188;21.024;2023-02-22T00:23:48;77274.06;;;-141.45;100.00
31403;BME280;18039;52.188;21.024;2023-02-22T00:26:18;77288.25;;;-141.45;99.71
31403;BME280;18039;52.188;21.024;2023-02-22T00:28:52;77290.28;;;-141.45;99.21
31403;BME280;18039;52.188;21.024;2023-02-22T00:31:20;77290.28;;;-141.45;99.40
31403;BME280;18039;52.188;21.024;2023-02-22T00:33:48;77302.44;;;-141.45;98.81
31403;BME280;18039;52.188;21.024;2023-02-22T00:36:16;77308.53;;;-141.45;99.11
31403;BME280;18039;52.188;21.024;2023-02-22T00:38:43;77326.78;;;-141.45;99.29
31403;BME280;18039;52.188;21.024;2023-02-22T00:41:11;77324.75;;;-141.45;99.79
31403;BME280;18039;52.188;21.024;2023-02-22T00:43:38;77330.84;;;-141.45;99.76
31403;BME280;18039;52.188;21.024;2023-02-22T00:46:05;77343.00;;;-141.45;99.28
31403;BME280;18039;52.188;21.024;2023-02-22T00:48:32;77355.16;;;-141.45;99.39
31403;BME280;18039;52.188;21.024;2023-02-22T00:51:00;77363.28;;;-141.45;100.00
31403;BME280;18039;52.188;21.024;2023-02-22T00:53:28;77375.44;;;-141.45;100.00
31403;BME280;18039;52.188;21.024;2023-02-22T00:55:55;77375.44;;;-141.45;100.00
31403;BME280;18039;52.188;21.024;2023-02-22T00:58:22;77383.56;;;-141.45;100.00
31403;BME280;18039;52.188;21.024;2023-02-22T01:00:50;77391.66;;;-141.45;100.00
31403;BME280;18039;52.188;21.024;2023-02-22T01:03:18;77393.69;;;-141.45;100.00
31403;BME280;18039;52.188;21.024;2023-02-22T01:05:47;77387.59;;;-141.45;100.00
31403;BME280;18039;52.188;21.024;2023-02-22T01:08:16;77403.84;;;-141.45;100.00
31403;BME280;18039;52.188;21.024;2023-02-22T01:10:44;77395.72;;;-141.45;100.00
31403;BME280;18039;52.188;21.024;2023-02-22T01:13:12;77393.69;;;-141.45;100.00
31403;BME280;18039;52.188;21.024;2023-02-22T01:15:41;77397.75;;;-141.45;100.00
31403;BME280;18039;52.188;21.024;2023-02-22T01:18:28;77403.84;;;-141.45;100.00
31403;BME280;18039;52.188;21.024;2023-02-22T01:20:56;77405.84;;;-141.45;100.00
31403;BME280;18039;52.188;21.024;2023-02-22T01:23:43;77416.00;;;-141.45;100.00
31403;BME280;18039;52.188;21.024;2023-02-22T01:26:53;77440.31;;;-141.45;100.00
31403;BME280;18039;52.188;21.024;2023-02-22T01:29:20;77438.31;;;-141.45;100.00
31403;BME280;18039;52.188;21.024;2023-02-22T01:32:05;77438.31;;;-141.45;100.00
31403;BME280;18039;52.188;21.024;2023-02-22T01:34:33;77452.50;;;-141.45;100.00
31403;BME280;18039;52.188;21.024;2023-02-22T01:37:01;77448.44;;;-141.45;100.00
31403;BME280;18039;52.188;21.024;2023-02-22T01:39:30;77448.44;;;-141.45;100.00
31403;BME280;18039;52.188;21.024;2023-02-22T01:42:14;77444.38;;;-141.45;100.00
31403;BME280;18039;52.188;21.024;2023-02-22T01:44:42;77430.19;;;-141.45;100.00
31403;BME280;18039;52.188;21.024;2023-02-22T01:47:27;77428.16;;;-141.45;100.00
31403;BME280;18039;52.188;21.024;2023-02-22T01:50:36;77420.06;;;-141.45;100.00
31403;BME280;18039;52.188;21.024;2023-02-22T01:53:30;77411.94;;;-141.45;100.00
31403;BME280;18039;52.188;21.024;2023-02-22T01:56:20;77407.88;;;-141.45;99.88
31403;BME280;18039;52.188;21.024;2023-02-22T01:59:24;77413.97;;;-141.45;99.03
31403;BME280;18039;52.188;21.024;2023-02-22T02:02:29;77420.06;;;-141.45;98.50
31403;BME280;18039;52.188;21.024;2023-02-22T02:05:34;77424.09;;;-141.45;98.44
31403;BME280;18039;52.188;21.024;2023-02-22T02:08:55;77416.00;;;-141.45;98.27
31403;BME280;18039;52.188;21.024;2023-02-22T02:11:25;77420.06;;;-141.45;98.42
31403;BME280;18039;52.188;21.024;2023-02-22T02:13:54;77420.06;;;-141.45;98.27
31403;BME280;18039;52.188;21.024;2023-02-22T02:16:25;77422.06;;;-141.45;98.63
31403;BME280;18039;52.188;21.024;2023-02-22T02:18:57;77420.06;;;-141.45;98.19
31403;BME280;18039;52.188;21.024;2023-02-22T02:21:59;77426.13;;;-141.45;98.13
31403;BME280;18039;52.188;21.024;2023-02-22T02:25:18;77420.06;;;-141.45;98.22
31403;BME280;18039;52.188;21.024;2023-02-22T02:28:37;77430.19;;;-141.45;97.62
31403;BME280;18039;52.188;21.024;2023-02-22T02:37:29;77448.44;;;-141.45;96.81
31403;BME280;18039;52.188;21.024;2023-02-22T02:43:16;77478.84;;;-141.45;96.24
31403;BME280;18039;52.188;21.024;2023-02-22T02:45:54;77501.16;;;-141.45;97.10
31403;BME280;18039;52.188;21.024;2023-02-22T02:48:26;77489.00;;;-141.45;97.06
31403;BME280;18039;52.188;21.024;2023-02-22T02:50:57;77495.06;;;-141.45;96.86
31403;BME280;18039;52.188;21.024;2023-02-22T02:53:39;77499.13;;;-141.45;96.84
31403;BME280;18039;52.188;21.024;2023-02-22T02:56:26;77509.25;;;-141.45;96.56
31403;BME280;18039;52.188;21.024;2023-02-22T02:58:54;77515.34;;;-141.45;97.00
31403;BME280;18039;52.188;21.024;2023-02-22T03:07:04;77517.38;;;-141.45;96.63
31403;BME280;18039;52.188;21.024;2023-02-22T03:16:16;77521.44;;;-141.45;96.42
31403;BME280;18039;52.188;21.024;2023-02-22T03:21:54;77529.53;;;-141.45;96.70
31403;BME280;18039;52.188;21.024;2023-02-22T03:24:30;77531.56;;;-141.45;97.25
31403;BME280;18039;52.188;21.024;2023-02-22T03:27:05;77537.66;;;-141.45;96.83
31403;BME280;18039;52.188;21.024;2023-02-22T03:29:41;77545.75;;;-141.45;96.72
31403;BME280;18039;52.188;21.024;2023-02-22T03:32:16;77547.78;;;-141.45;97.39
31403;BME280;18039;52.188;21.024;2023-02-22T03:34:51;77551.84;;;-141.45;97.54
31403;BME280;18039;52.188;21.024;2023-02-22T03:37:32;77545.75;;;-141.45;97.86
31403;BME280;18039;52.188;21.024;2023-02-22T03:40:02;77549.81;;;-141.45;97.71
31403;BME280;18039;52.188;21.024;2023-02-22T03:42:49;77535.63;;;-141.45;97.81
31403;BME280;18039;52.188;21.024;2023-02-22T03:45:24;77533.59;;;-141.45;97.93
31403;BME280;18039;52.188;21.024;2023-02-22T03:48:01;77541.72;;;-141.45;97.58
31403;BME280;18039;52.188;21.024;2023-02-22T03:50:33;77545.75;;;-141.45;98.14
31403;BME280;18039;52.188;21.024;2023-02-22T03:53:03;77549.81;;;-141.45;98.30
31403;BME280;18039;52.188;21.024;2023-02-22T03:55:33;77545.75;;;-141.45;98.35
31403;BME280;18039;52.188;21.024;2023-02-22T03:58:09;77541.72;;;-141.45;98.27
31403;BME280;18039;52.188;21.024;2023-02-22T04:00:39;77549.81;;;-141.45;97.90
31403;BME280;18039;52.188;21.024;2023-02-22T04:03:10;77566.03;;;-141.45;98.12
31403;BME280;18039;52.188;21.024;2023-02-22T04:05:38;77578.22;;;-141.45;98.55
31403;BME280;18039;52.188;21.024;2023-02-22T04:08:06;77570.09;;;-141.45;99.71
31403;BME280;18039;52.188;21.024;2023-02-22T04:10:33;77586.31;;;-141.45;99.23
31403;BME280;18039;52.188;21.024;2023-02-22T04:13:01;77578.22;;;-141.45;99.71
31403;BME280;18039;52.188;21.024;2023-02-22T04:15:29;77578.22;;;-141.45;99.74
31403;BME280;18039;52.188;21.024;2023-02-22T04:18:02;77582.25;;;-141.45;99.63
31403;BME280;18039;52.188;21.024;2023-02-22T04:20:30;77594.44;;;-141.45;100.00
31403;BME280;18039;52.188;21.024;2023-02-22T04:23:02;77596.44;;;-141.45;100.00
31403;BME280;18039;52.188;21.024;2023-02-22T04:25:30;77586.31;;;-141.45;100.00
31403;BME280;18039;52.188;21.024;2023-02-22T04:28:00;77590.38;;;-141.45;100.00
31403;BME280;18039;52.188;21.024;2023-02-22T04:30:45;77630.94;;;-141.45;99.59
31403;BME280;18039;52.188;21.024;2023-02-22T04:33:14;77667.44;;;-141.45;98.58
31403;BME280;18039;52.188;21.024;2023-02-22T04:35:42;77707.97;;;-141.45;98.66
31403;BME280;18039;52.188;21.024;2023-02-22T04:38:09;77722.19;;;-141.45;98.75
31403;BME280;18039;52.188;21.024;2023-02-22T04:40:38;77734.34;;;-141.45;99.07
31403;BME280;18039;52.188;21.024;2023-02-22T04:43:06;77740.44;;;-141.45;99.44
31403;BME280;18039;52.188;21.024;2023-02-22T04:45:34;77746.50;;;-141.45;99.41
31403;BME280;18039;52.188;21.024;2023-02-22T04:48:02;77748.53;;;-141.45;99.80
31403;BME280;18039;52.188;21.024;2023-02-22T04:50:31;77758.69;;;-141.45;99.84
31403;BME280;18039;52.188;21.024;2023-02-22T04:52:58;77754.63;;;-141.45;99.89
31403;BME280;18039;52.188;21.024;2023-02-22T04:55:25;77752.59;;;-141.45;99.71
31403;BME280;18039;52.188;21.024;2023-02-22T04:57:55;77752.59;;;-141.45;99.70
31403;BME280;18039;52.188;21.024;2023-02-22T05:00:23;77752.59;;;-141.45;99.96
31403;BME280;18039;52.188;21.024;2023-02-22T05:02:55;77756.66;;;-141.45;99.78
31403;BME280;18039;52.188;21.024;2023-02-22T05:05:22;77742.44;;;-141.45;99.06
31403;BME280;18039;52.188;21.024;2023-02-22T05:07:49;77736.38;;;-141.45;98.95
31403;BME280;18039;52.188;21.024;2023-02-22T05:10:17;77736.38;;;-141.45;99.13
31403;BME280;18039;52.188;21.024;2023-02-22T05:12:44;77740.44;;;-141.45;99.17
31403;BME280;18039;52.188;21.024;2023-02-22T05:15:16;77748.53;;;-141.45;98.84
31403;BME280;18039;52.188;21.024;2023-02-22T05:17:43;77752.59;;;-141.45;98.85
31403;BME280;18039;52.188;21.024;2023-02-22T05:20:24;77756.66;;;-141.45;98.73
31403;BME280;18039;52.188;21.024;2023-02-22T05:22:57;77754.63;;;-141.45;99.36
31403;BME280;18039;52.188;21.024;2023-02-22T05:25:26;77760.69;;;-141.45;99.63
31403;BME280;18039;52.188;21.024;2023-02-22T05:27:55;77764.75;;;-141.45;99.19
31403;BME280;18039;52.188;21.024;2023-02-22T05:30:28;77764.75;;;-141.45;98.79
31403;BME280;18039;52.188;21.024;2023-02-22T05:32:56;77764.75;;;-141.45;98.77
31403;BME280;18039;52.188;21.024;2023-02-22T05:35:26;77764.75;;;-141.45;99.23
31403;BME280;18039;52.188;21.024;2023-02-22T05:37:54;77764.75;;;-141.45;98.65
31403;BME280;18039;52.188;21.024;2023-02-22T05:40:23;77764.75;;;-141.45;98.79
31403;BME280;18039;52.188;21.024;2023-02-22T05:42:51;77748.53;;;-141.45;99.13
31403;BME280;18039;52.188;21.024;2023-02-22T05:45:21;77748.53;;;-141.45;98.96
31403;BME280;18039;52.188;21.024;2023-02-22T05:47:49;77748.53;;;-141.45;97.93
31403;BME280;18039;52.188;21.024;2023-02-22T05:50:17;77744.47;;;-141.45;97.50
31403;BME280;18039;52.188;21.024;2023-02-22T05:52:46;77740.44;;;-141.45;96.94
31403;BME280;18039;52.188;21.024;2023-02-22T05:55:16;77744.47;;;-141.45;96.89
31403;BME280;18039;52.188;21.024;2023-02-22T05:57:44;77744.47;;;-141.45;97.04
31403;BME280;18039;52.188;21.024;2023-02-22T06:00:21;77742.44;;;-141.45;96.73
31403;BME280;18039;52.188;21.024;2023-02-22T06:02:55;77750.56;;;-141.45;95.66
31403;BME280;18039;52.188;21.024;2023-02-22T06:05:23;77752.59;;;-141.45;94.82
31403;BME280;18039;52.188;21.024;2023-02-22T06:07:51;77746.50;;;-141.45;95.02
31403;BME280;18039;52.188;21.024;2023-02-22T06:10:19;77752.59;;;-141.45;94.05
31403;BME280;18039;52.188;21.024;2023-02-22T06:12:47;77752.59;;;-141.45;93.48
31403;BME280;18039;52.188;21.024;2023-02-22T06:15:16;77744.47;;;-141.45;92.53
31403;BME280;18039;52.188;21.024;2023-02-22T06:17:43;77744.47;;;-141.45;93.09
31403;BME280;18039;52.188;21.024;2023-02-22T06:20:13;77752.59;;;-141.45;91.54
31403;BME280;18039;52.188;21.024;2023-02-22T06:22:41;77752.59;;;-141.45;91.22
31403;BME280;18039;52.188;21.024;2023-02-22T06:25:09;77748.53;;;-141.45;91.65
31403;BME280;18039;52.188;21.024;2023-02-22T06:27:36;77752.59;;;-141.45;91.58
31403;BME280;18039;52.188;21.024;2023-02-22T06:30:04;77744.47;;;-141.45;92.27
31403;BME280;18039;52.188;21.024;2023-02-22T06:32:31;77746.50;;;-141.45;91.51
31403;BME280;18039;52.188;21.024;2023-02-22T06:34:59;77744.47;;;-141.45;91.87
31403;BME280;18039;52.188;21.024;2023-02-22T06:37:26;77744.47;;;-141.45;93.43
31403;BME280;18039;52.188;21.024;2023-02-22T06:39:53;77744.47;;;-141.45;92.28
31403;BME280;18039;52.188;21.024;2023-02-22T06:42:20;77748.53;;;-141.45;92.62
31403;BME280;18039;52.188;21.024;2023-02-22T06:44:47;77742.44;;;-141.45;91.85
31403;BME280;18039;52.188;21.024;2023-02-22T06:47:17;77732.31;;;-141.45;91.76
31403;BME280;18039;52.188;21.024;2023-02-22T06:49:51;77748.53;;;-141.45;90.42
31403;BME280;18039;52.188;21.024;2023-02-22T06:52:19;77748.53;;;-141.45;89.33
31403;BME280;18039;52.188;21.024;2023-02-22T06:54:46;77744.47;;;-141.45;90.04
31403;BME280;18039;52.188;21.024;2023-02-22T06:57:13;77744.47;;;-141.45;88.88
31403;BME280;18039;52.188;21.024;2023-02-22T06:59:41;77744.47;;;-141.45;88.75
31403;BME280;18039;52.188;21.024;2023-02-22T07:02:12;77752.59;;;-141.45;88.41
31403;BME280;18039;52.188;21.024;2023-02-22T07:04:39;77752.59;;;-141.45;88.53
31403;BME280;18039;52.188;21.024;2023-02-22T07:07:11;77744.47;;;-141.45;88.62
31403;BME280;18039;52.188;21.024;2023-02-22T07:09:38;77764.75;;;-141.45;87.48
31403;BME280;18039;52.188;21.024;2023-02-22T07:12:05;77752.59;;;-141.45;87.92
31403;BME280;18039;52.188;21.024;2023-02-22T07:14:33;77748.53;;;-141.45;87.85
31403;BME280;18039;52.188;21.024;2023-02-22T07:17:01;77748.53;;;-141.45;87.32
31403;BME280;18039;52.188;21.024;2023-02-22T07:19:29;77748.53;;;-141.45;86.41
31403;BME280;18039;52.188;21.024;2023-02-22T07:21:56;77740.44;;;-141.45;86.45
31403;BME280;18039;52.188;21.024;2023-02-22T07:24:25;77740.44;;;-141.45;88.47
31403;BME280;18039;52.188;21.024;2023-02-22T07:26:54;77724.19;;;-141.45;87.02
31403;BME280;18039;52.188;21.024;2023-02-22T07:29:22;77728.25;;;-141.45;85.06
31403;BME280;18039;52.188;21.024;2023-02-22T07:31:49;77724.19;;;-141.45;83.78
31403;BME280;18039;52.188;21.024;2023-02-22T07:34:17;77720.16;;;-141.45;84.31
31403;BME280;18039;52.188;21.024;2023-02-22T07:36:44;77716.09;;;-141.45;84.76
31403;BME280;18039;52.188;21.024;2023-02-22T07:39:11;77714.06;;;-141.45;83.88
31403;BME280;18039;52.188;21.024;2023-02-22T07:41:38;77712.03;;;-141.45;83.20
31403;BME280;18039;52.188;21.024;2023-02-22T07:44:20;77707.97;;;-141.45;83.13
31403;BME280;18039;52.188;21.024;2023-02-22T07:46:48;77691.75;;;-141.45;82.09
31403;BME280;18039;52.188;21.024;2023-02-22T07:49:17;77695.81;;;-141.45;82.03
31403;BME280;18039;52.188;21.024;2023-02-22T07:51:44;77679.59;;;-141.45;81.92
31403;BME280;18039;52.188;21.024;2023-02-22T07:54:11;77679.59;;;-141.45;79.81
31403;BME280;18039;52.188;21.024;2023-02-22T07:56:46;77679.59;;;-141.45;80.06
31403;BME280;18039;52.188;21.024;2023-02-22T07:59:15;77675.53;;;-141.45;79.51
31403;BME280;18039;52.188;21.024;2023-02-22T08:01:42;77675.53;;;-141.45;77.18
31403;BME280;18039;52.188;21.024;2023-02-22T08:04:09;77667.44;;;-141.45;77.10
31403;BME280;18039;52.188;21.024;2023-02-22T08:06:36;77663.38;;;-141.45;78.64
31403;BME280;18039;52.188;21.024;2023-02-22T08:09:04;77663.38;;;-141.45;77.27
31403;BME280;18039;52.188;21.024;2023-02-22T08:11:32;77645.13;;;-141.45;78.19
31403;BME280;18039;52.188;21.024;2023-02-22T08:13:59;77641.06;;;-141.45;77.52
31403;BME280;18039;52.188;21.024;2023-02-22T08:16:26;77628.91;;;-141.45;76.67
31403;BME280;18039;52.188;21.024;2023-02-22T08:18:55;77622.81;;;-141.45;75.55
31403;BME280;18039;52.188;21.024;2023-02-22T08:21:22;77624.84;;;-141.45;76.12
31403;BME280;18039;52.188;21.024;2023-02-22T08:23:50;77622.81;;;-141.45;75.55
31403;BME280;18039;52.188;21.024;2023-02-22T08:26:20;77610.66;;;-141.45;75.20
31403;BME280;18039;52.188;21.024;2023-02-22T08:28:47;77606.59;;;-141.45;74.72
31403;BME280;18039;52.188;21.024;2023-02-22T08:31:15;77610.66;;;-141.45;73.67
31403;BME280;18039;52.188;21.024;2023-02-22T08:33:48;77606.59;;;-141.45;72.66
31403;BME280;18039;52.188;21.024;2023-02-22T08:36:15;77602.53;;;-141.45;71.59
31403;BME280;18039;52.188;21.024;2023-02-22T08:38:44;77610.66;;;-141.45;72.69
31403;BME280;18039;52.188;21.024;2023-02-22T08:41:11;77612.69;;;-141.45;73.14
31403;BME280;18039;52.188;21.024;2023-02-22T08:43:39;77606.59;;;-141.45;72.77
31403;BME280;18039;52.188;21.024;2023-02-22T08:46:06;77600.50;;;-141.45;73.03
31403;BME280;18039;52.188;21.024;2023-02-22T08:48:33;77604.56;;;-141.45;72.12
31403;BME280;18039;52.188;21.024;2023-02-22T08:51:00;77602.53;;;-141.45;72.09
31403;BME280;18039;52.188;21.024;2023-02-22T08:53:30;77610.66;;;-141.45;71.43
31403;BME280;18039;52.188;21.024;2023-02-22T08:55:58;77606.59;;;-141.45;71.56
31403;BME280;18039;52.188;21.024;2023-02-22T08:58:25;77608.63;;;-141.45;71.41
31403;BME280;18039;52.188;21.024;2023-02-22T09:00:52;77606.59;;;-141.45;71.01
31403;BME280;18039;52.188;21.024;2023-02-22T09:03:20;77602.53;;;-141.45;70.56
31403;BME280;18039;52.188;21.024;2023-02-22T09:05:47;77600.50;;;-141.45;69.66
31403;BME280;18039;52.188;21.024;2023-02-22T09:08:16;77614.69;;;-141.45;70.22
31403;BME280;18039;52.188;21.024;2023-02-22T09:10:44;77622.81;;;-141.45;70.02
31403;BME280;18039;52.188;21.024;2023-02-22T09:13:11;77626.88;;;-141.45;69.13
31403;BME280;18039;52.188;21.024;2023-02-22T09:15:39;77626.88;;;-141.45;69.48
31403;BME280;18039;52.188;21.024;2023-02-22T09:18:08;77626.88;;;-141.45;69.27
31403;BME280;18039;52.188;21.024;2023-02-22T09:20:37;77628.91;;;-141.45;69.47
31403;BME280;18039;52.188;21.024;2023-02-22T09:23:06;77606.59;;;-141.45;70.65
31403;BME280;18039;52.188;21.024;2023-02-22T09:25:35;77596.44;;;-141.45;70.18
31403;BME280;18039;52.188;21.024;2023-02-22T09:28:05;77592.41;;;-141.45;69.86
31403;BME280;18039;52.188;21.024;2023-02-22T09:30:34;77582.25;;;-141.45;69.48
31403;BME280;18039;52.188;21.024;2023-02-22T09:33:13;77561.97;;;-141.45;70.72
31403;BME280;18039;52.188;21.024;2023-02-22T09:35:42;77557.94;;;-141.45;70.00
31403;BME280;18039;52.188;21.024;2023-02-22T09:38:19;77557.94;;;-141.45;70.23
31403;BME280;18039;52.188;21.024;2023-02-22T09:40:51;77586.31;;;-141.45;68.56
31403;BME280;18039;52.188;21.024;2023-02-22T09:43:29;77606.59;;;-141.45;68.68
31403;BME280;18039;52.188;21.024;2023-02-22T09:48:58;77618.75;;;-141.45;70.70
31403;BME280;18039;52.188;21.024;2023-02-22T09:51:38;77637.00;;;-141.45;71.05
31403;BME280;18039;52.188;21.024;2023-02-22T09:54:14;77663.38;;;-141.45;70.92
31403;BME280;18039;52.188;21.024;2023-02-22T09:56:46;77671.47;;;-141.45;72.80
31403;BME280;18039;52.188;21.024;2023-02-22T09:59:21;77679.59;;;-141.45;72.61
31403;BME280;18039;52.188;21.024;2023-02-22T10:01:56;77687.69;;;-141.45;73.27
31403;BME280;18039;52.188;21.024;2023-02-22T10:07:35;77701.91;;;-141.45;74.04
31403;BME280;18039;52.188;21.024;2023-02-22T10:10:06;77705.94;;;-141.45;73.40
31403;BME280;18039;52.188;21.024;2023-02-22T10:13:04;77714.06;;;-141.45;73.84
31403;BME280;18039;52.188;21.024;2023-02-22T10:16:00;77716.09;;;-141.45;74.50
31403;BME280;18039;52.188;21.024;2023-02-22T10:18:49;77716.09;;;-141.45;72.91
31403;BME280;18039;52.188;21.024;2023-02-22T10:21:45;77734.34;;;-141.45;72.69
31403;BME280;18039;52.188;21.024;2023-02-22T10:24:59;77744.47;;;-141.45;72.35
31403;BME280;18039;52.188;21.024;2023-02-22T10:27:32;77742.44;;;-141.45;73.55
31403;BME280;18039;52.188;21.024;2023-02-22T10:30:20;77748.53;;;-141.45;72.87
31403;BME280;18039;52.188;21.024;2023-02-22T10:33:18;77772.88;;;-141.45;73.86
31403;BME280;18039;52.188;21.024;2023-02-22T10:35:47;77789.09;;;-141.45;74.80
31403;BME280;18039;52.188;21.024;2023-02-22T10:38:26;77801.25;;;-141.45;74.44
31403;BME280;18039;52.188;21.024;2023-02-22T10:43:37;77829.66;;;-141.45;73.73
31403;BME280;18039;52.188;21.024;2023-02-22T10:46:06;77845.88;;;-141.45;73.58
31403;BME280;18039;52.188;21.024;2023-02-22T10:48:37;77851.97;;;-141.45;73.19
31403;BME280;18039;52.188;21.024;2023-02-22T10:51:08;77862.09;;;-141.45;73.08
31403;BME280;18039;52.188;21.024;2023-02-22T10:53:38;77862.09;;;-141.45;72.68
31403;BME280;18039;52.188;21.024;2023-02-22T10:56:18;77870.22;;;-141.45;71.82
31403;BME280;18039;52.188;21.024;2023-02-22T10:58:55;77874.25;;;-141.45;72.24
31403;BME280;18039;52.188;21.024;2023-02-22T11:06:34;77882.38;;;-141.45;71.71
31403;BME280;18039;52.188;21.024;2023-02-22T11:09:16;77880.34;;;-141.45;71.58
31403;BME280;18039;52.188;21.024;2023-02-22T11:11:46;77882.38;;;-141.45;72.43
31403;BME280;18039;52.188;21.024;2023-02-22T11:14:34;77878.31;;;-141.45;72.44
31403;BME280;18039;52.188;21.024;2023-02-22T11:17:06;77870.22;;;-141.45;72.74
31403;BME280;18039;52.188;21.024;2023-02-22T11:19:34;77858.03;;;-141.45;71.79
31403;BME280;18039;52.188;21.024;2023-02-22T11:24:31;77853.97;;;-141.45;70.62
31403;BME280;18039;52.188;21.024;2023-02-22T11:27:29;77849.94;;;-141.45;69.27
31403;BME280;18039;52.188;21.024;2023-02-22T11:35:52;77845.88;;;-141.45;68.23
31403;BME280;18039;52.188;21.024;2023-02-22T11:38:21;77841.81;;;-141.45;67.05
31403;BME280;18039;52.188;21.024;2023-02-22T11:41:16;77825.59;;;-141.45;68.13
31403;BME280;18039;52.188;21.024;2023-02-22T11:43:46;77811.41;;;-141.45;66.82
31403;BME280;18039;52.188;21.024;2023-02-22T11:46:34;77809.38;;;-141.45;66.91
31403;BME280;18039;52.188;21.024;2023-02-22T11:49:06;77797.19;;;-141.45;66.91
31403;BME280;18039;52.188;21.024;2023-02-22T11:51:52;77793.16;;;-141.45;65.05
31403;BME280;18039;52.188;21.024;2023-02-22T12:00:40;77805.31;;;-141.45;65.33
31403;BME280;18039;52.188;21.024;2023-02-22T12:19:41;77793.16;;;-141.45;63.87
31403;BME280;18039;52.188;21.024;2023-02-22T12:24:45;77797.19;;;-141.45;64.31
31403;BME280;18039;52.188;21.024;2023-02-22T12:27:30;77797.19;;;-141.45;62.85
31403;BME280;18039;52.188;21.024;2023-02-22T12:30:32;77789.09;;;-141.45;63.25
31403;BME280;18039;52.188;21.024;2023-02-22T12:32:59;77789.09;;;-141.45;62.06
31403;BME280;18039;52.188;21.024;2023-02-22T12:35:35;77793.16;;;-141.45;63.04
31403;BME280;18039;52.188;21.024;2023-02-22T12:43:27;77797.19;;;-141.45;63.42
31403;BME280;18039;52.188;21.024;2023-02-22T12:46:01;77805.31;;;-141.45;62.85
31403;BME280;18039;52.188;21.024;2023-02-22T12:48:39;77803.28;;;-141.45;61.92
31403;BME280;18039;52.188;21.024;2023-02-22T12:51:30;77801.25;;;-141.45;62.56
31403;BME280;18039;52.188;21.024;2023-02-22T12:54:40;77805.31;;;-141.45;62.47
31403;BME280;18039;52.188;21.024;2023-02-22T13:00:04;77787.06;;;-141.45;62.55
31403;BME280;18039;52.188;21.024;2023-02-22T13:02:42;77785.03;;;-141.45;61.61
31403;BME280;18039;52.188;21.024;2023-02-22T13:05:16;77799.22;;;-141.45;61.49
31403;BME280;18039;52.188;21.024;2023-02-22T13:07:57;77817.47;;;-141.45;62.83
31403;BME280;18039;52.188;21.024;2023-02-22T13:10:45;77821.53;;;-141.45;61.90
31403;BME280;18039;52.188;21.024;2023-02-22T13:13:31;77839.78;;;-141.45;62.48
31403;BME280;18039;52.188;21.024;2023-02-22T13:19:05;77841.81;;;-141.45;62.21
31403;BME280;18039;52.188;21.024;2023-02-22T13:21:47;77853.97;;;-141.45;61.46
31403;BME280;18039;52.188;21.024;2023-02-22T13:27:48;77870.22;;;-141.45;62.32
31403;BME280;18039;52.188;21.024;2023-02-22T13:30:25;77876.28;;;-141.45;62.42
31403;BME280;18039;52.188;21.024;2023-02-22T13:33:05;77870.22;;;-141.45;63.25
31403;BME280;18039;52.188;21.024;2023-02-22T13:36:14;77874.25;;;-141.45;62.68
31403;BME280;18039;52.188;21.024;2023-02-22T13:44:57;77878.31;;;-141.45;62.79
31403;BME280;18039;52.188;21.024;2023-02-22T13:53:27;77866.16;;;-141.45;62.58
31403;BME280;18039;52.188;21.024;2023-02-22T13:55:57;77868.19;;;-141.45;63.38
31403;BME280;18039;52.188;21.024;2023-02-22T13:58:26;77862.09;;;-141.45;63.49
31403;BME280;18039;52.188;21.024;2023-02-22T14:00:58;77864.13;;;-141.45;63.59
31403;BME280;18039;52.188;21.024;2023-02-22T14:06:36;77866.16;;;-141.45;63.19
31403;BME280;18039;52.188;21.024;2023-02-22T14:09:43;77874.25;;;-141.45;62.81
31403;BME280;18039;52.188;21.024;2023-02-22T14:17:58;77894.53;;;-141.45;63.91
31403;BME280;18039;52.188;21.024;2023-02-22T14:20:37;77894.53;;;-141.45;63.08
31403;BME280;18039;52.188;21.024;2023-02-22T14:23:26;77914.81;;;-141.45;63.36
31403;BME280;18039;52.188;21.024;2023-02-22T14:26:09;77922.94;;;-141.45;63.16
31403;BME280;18039;52.188;21.024;2023-02-22T14:28:41;77926.97;;;-141.45;63.26
31403;BME280;18039;52.188;21.024;2023-02-22T14:31:14;77943.22;;;-141.45;63.45
31403;BME280;18039;52.188;21.024;2023-02-22T14:34:12;77947.25;;;-141.45;63.69
31403;BME280;18039;52.188;21.024;2023-02-22T14:36:53;77959.44;;;-141.45;64.69
31403;BME280;18039;52.188;21.024;2023-02-22T14:42:09;77963.50;;;-141.45;64.23
31403;BME280;18039;52.188;21.024;2023-02-22T14:44:52;77971.59;;;-141.45;64.58
31403;BME280;18039;52.188;21.024;2023-02-22T14:47:38;77971.59;;;-141.45;64.10
31403;BME280;18039;52.188;21.024;2023-02-22T14:50:13;77975.66;;;-141.45;64.38
31403;BME280;18039;52.188;21.024;2023-02-22T14:52:45;77983.75;;;-141.45;63.52